GCFV/FUE METAR and TAF weather

Enter ICAO airport designator
Station Type Date Time Source
GCFV METAR 2018/10/22 17:00 UTC NOAA

GCFV 221700Z 18016KT 9999 FEW025 BKN035 23/19 Q1017


Station Type Date Time Source
GCFV Decoded METAR 2018/10/22 17:00 UTC NOAA

Fuerteventura / Aeropuerto, Spain (GCFV) 28-27N 013-52W 30M
Oct 22, 2018 - 01:00 PM EDT / 2018.10.22 1700 UTC
Wind: from the S (180 degrees) at 18 MPH (16 KT):0
Visibility: greater than 7 mile(s):0
Sky conditions: mostly cloudy
Temperature: 73 F (23 C)
Dew Point: 66 F (19 C)
Relative Humidity: 78%
Pressure (altimeter): 30.03 in. Hg (1017 hPa)
ob: GCFV 221700Z 18016KT 9999 FEW025 BKN035 23/19 Q1017
cycle: 17

Station Type Date Time Source
GCFV TAF 2018/10/22 15:27 UTC NOAA

TAF TAF GCFV 221400Z 2215/2315 17010KT 9999 SCT025 TX24/2314Z TN19/2305Z PROB30
TEMPO 2221/2315 RA


Example: see airport list